<?xml version="1.0" encoding="UTF-8" standalone="no" ?>
<gpx xmlns="http://www.topografix.com/GPX/1/1" xmlns:xsi="http://www.w3.org/2001/XMLSchema-instance" xsi:schemaLocation="http://www.topografix.com/GPX/1/1 http://www.topografix.com/GPX/1/1/gpx.xsd" version="1.1" creator="VisuGPX - https://www.visugpx.com">
  <metadata>
    <name>Pic Cherue Lavigne-64-Rando</name>
    <desc><![CDATA[Randonnée en Vallée Ossau]]></desc>
  </metadata>
  <wpt lat="42.88065" lon="-0.4028">
    <ele>1284.69</ele>
    <name><![CDATA[]]></name>
    <type><![CDATA[Point de départ]]></type>
  </wpt>
  <wpt lat="42.88046" lon="-0.40269">
    <ele>1250.43</ele>
    <name><![CDATA[]]></name>
    <desc><![CDATA[<p><br /><h3>Nom: Segment: 1</h3><br />Heure de départ: 09:44 6 juin 2022<br/>Heure d'arrivée: 15:13 6 juin 2022<br/>Distance: 10,7km (05:29)<br/>Temps déplacement: 04:11<br/>Vitesse moyenne: 1,94 km/h<br/>Vitesse moyenne mouv.: 2,54 km/h<br/>Vitesse Max.: 7,66 km/h<br/>Altitude minimale: 1276 m<br/>Altitude maximale: 2196 m<br/>Vitesse de montée: 910,7 m/h<br/>Vitesse de descente: 328,7 m/h<br/>Gain d'altitude: 1005 m<br/>Perte d'altitude: 986 m<br/>Temps de montée: 01:06<br/>Temps de descente: 03:00<br/></p>]]></desc>
    <type><![CDATA[Point d'arrivée]]></type>
  </wpt>
  <trk>
    <name><![CDATA[2022-06-06 Cherue ]]></name>
    <desc><![CDATA[<p>Heure de départ: 09:44 6 juin 2022<br/>Heure d'arrivée: 15:13 6 juin 2022<br/>Distance: 10,7 km (05:29)<br/>Temps déplacement: 04:11<br/>Vitesse moyenne: 1,94 km/h<br/>Vitesse moyenne mouv.: 2,54 km/h<br/>Vitesse Max.: 7,66 km/h<br/>Altitude minimale: 1276 m<br/>Altitude maximale: 2196 m<br/>Vitesse de montée: 910,7 m/h<br/>Vitesse de descente: 328,7 m/h<br/>Gain d'altitude: 1005 m<br/>Perte d'altitude: 986 m<br/>Temps de montée: 01:06<br/>Temps de descente: 03:00<br/></p><hr align="center" width="480" style="height: 2px; width: 517px"/>]]></desc>
    <trkseg>
      <trkpt lat="42.88065" lon="-0.4028">
        <ele>1284.69</ele>
        <time>2022-06-06T07:44:21.000Z</time>
      </trkpt>
      <trkpt lat="42.88048" lon="-0.40275">
        <ele>1263.92</ele>
        <time>2022-06-06T07:45:14.000Z</time>
      </trkpt>
      <trkpt lat="42.88066" lon="-0.40273">
        <ele>1253.65</ele>
        <time>2022-06-06T07:47:24.000Z</time>
      </trkpt>
      <trkpt lat="42.88064" lon="-0.40298">
        <ele>1258</ele>
        <time>2022-06-06T07:48:00.000Z</time>
      </trkpt>
      <trkpt lat="42.88078" lon="-0.40281">
        <ele>1269.46</ele>
        <time>2022-06-06T07:49:36.000Z</time>
      </trkpt>
      <trkpt lat="42.88097" lon="-0.40282">
        <ele>1275.4</ele>
        <time>2022-06-06T07:50:07.000Z</time>
      </trkpt>
      <trkpt lat="42.88115" lon="-0.40277">
        <ele>1286.84</ele>
        <time>2022-06-06T07:50:33.000Z</time>
      </trkpt>
      <trkpt lat="42.88132" lon="-0.40266">
        <ele>1294.42</ele>
        <time>2022-06-06T07:50:55.000Z</time>
      </trkpt>
      <trkpt lat="42.88146" lon="-0.40282">
        <ele>1289.22</ele>
        <time>2022-06-06T07:51:12.000Z</time>
      </trkpt>
      <trkpt lat="42.88136" lon="-0.40303">
        <ele>1295.43</ele>
        <time>2022-06-06T07:51:41.000Z</time>
      </trkpt>
      <trkpt lat="42.88127" lon="-0.40324">
        <ele>1307.36</ele>
        <time>2022-06-06T07:52:10.000Z</time>
      </trkpt>
      <trkpt lat="42.88114" lon="-0.40343">
        <ele>1306.5</ele>
        <time>2022-06-06T07:52:25.000Z</time>
      </trkpt>
      <trkpt lat="42.88112" lon="-0.40368">
        <ele>1312.66</ele>
        <time>2022-06-06T07:52:49.000Z</time>
      </trkpt>
      <trkpt lat="42.88097" lon="-0.40382">
        <ele>1313.25</ele>
        <time>2022-06-06T07:53:19.000Z</time>
      </trkpt>
      <trkpt lat="42.88091" lon="-0.40406">
        <ele>1313.99</ele>
        <time>2022-06-06T07:53:31.000Z</time>
      </trkpt>
      <trkpt lat="42.88076" lon="-0.40421">
        <ele>1322.39</ele>
        <time>2022-06-06T07:53:55.000Z</time>
      </trkpt>
      <trkpt lat="42.88061" lon="-0.40433">
        <ele>1319.32</ele>
        <time>2022-06-06T07:54:22.000Z</time>
      </trkpt>
      <trkpt lat="42.88056" lon="-0.40458">
        <ele>1336.76</ele>
        <time>2022-06-06T07:54:49.000Z</time>
      </trkpt>
      <trkpt lat="42.88047" lon="-0.4048">
        <ele>1341.64</ele>
        <time>2022-06-06T07:55:27.000Z</time>
      </trkpt>
      <trkpt lat="42.88037" lon="-0.40501">
        <ele>1345.1</ele>
        <time>2022-06-06T07:55:59.000Z</time>
      </trkpt>
      <trkpt lat="42.88028" lon="-0.40523">
        <ele>1352.56</ele>
        <time>2022-06-06T07:56:55.000Z</time>
      </trkpt>
      <trkpt lat="42.88025" lon="-0.40547">
        <ele>1353.79</ele>
        <time>2022-06-06T07:57:06.000Z</time>
      </trkpt>
      <trkpt lat="42.8802" lon="-0.40571">
        <ele>1374.93</ele>
        <time>2022-06-06T07:58:18.000Z</time>
      </trkpt>
      <trkpt lat="42.88011" lon="-0.40593">
        <ele>1377.78</ele>
        <time>2022-06-06T07:58:49.000Z</time>
      </trkpt>
      <trkpt lat="42.88008" lon="-0.40617">
        <ele>1389.65</ele>
        <time>2022-06-06T07:59:22.000Z</time>
      </trkpt>
      <trkpt lat="42.88023" lon="-0.4063">
        <ele>1413.34</ele>
        <time>2022-06-06T08:01:16.000Z</time>
      </trkpt>
      <trkpt lat="42.88042" lon="-0.40631">
        <ele>1410.3</ele>
        <time>2022-06-06T08:01:36.000Z</time>
      </trkpt>
      <trkpt lat="42.8806" lon="-0.40621">
        <ele>1416.97</ele>
        <time>2022-06-06T08:02:06.000Z</time>
      </trkpt>
      <trkpt lat="42.88078" lon="-0.40628">
        <ele>1418.77</ele>
        <time>2022-06-06T08:02:27.000Z</time>
      </trkpt>
      <trkpt lat="42.88091" lon="-0.40611">
        <ele>1417.07</ele>
        <time>2022-06-06T08:02:45.000Z</time>
      </trkpt>
      <trkpt lat="42.88109" lon="-0.40606">
        <ele>1432.79</ele>
        <time>2022-06-06T08:03:18.000Z</time>
      </trkpt>
      <trkpt lat="42.88127" lon="-0.40608">
        <ele>1429.6</ele>
        <time>2022-06-06T08:03:40.000Z</time>
      </trkpt>
      <trkpt lat="42.88135" lon="-0.40631">
        <ele>1445.76</ele>
        <time>2022-06-06T08:04:17.000Z</time>
      </trkpt>
      <trkpt lat="42.88128" lon="-0.40654">
        <ele>1455.14</ele>
        <time>2022-06-06T08:04:50.000Z</time>
      </trkpt>
      <trkpt lat="42.88121" lon="-0.40677">
        <ele>1453.72</ele>
        <time>2022-06-06T08:05:14.000Z</time>
      </trkpt>
      <trkpt lat="42.88108" lon="-0.40694">
        <ele>1456.25</ele>
        <time>2022-06-06T08:05:36.000Z</time>
      </trkpt>
      <trkpt lat="42.88091" lon="-0.40702">
        <ele>1471.1</ele>
        <time>2022-06-06T08:06:09.000Z</time>
      </trkpt>
      <trkpt lat="42.88081" lon="-0.40725">
        <ele>1477.28</ele>
        <time>2022-06-06T08:06:43.000Z</time>
      </trkpt>
      <trkpt lat="42.8807" lon="-0.40747">
        <ele>1477.84</ele>
        <time>2022-06-06T08:07:06.000Z</time>
      </trkpt>
      <trkpt lat="42.88059" lon="-0.40767">
        <ele>1475.9</ele>
        <time>2022-06-06T08:07:21.000Z</time>
      </trkpt>
      <trkpt lat="42.88048" lon="-0.40787">
        <ele>1473.79</ele>
        <time>2022-06-06T08:07:54.000Z</time>
      </trkpt>
      <trkpt lat="42.88034" lon="-0.40802">
        <ele>1486.31</ele>
        <time>2022-06-06T08:08:11.000Z</time>
      </trkpt>
      <trkpt lat="42.88021" lon="-0.4082">
        <ele>1495.08</ele>
        <time>2022-06-06T08:08:52.000Z</time>
      </trkpt>
      <trkpt lat="42.8801" lon="-0.40842">
        <ele>1496.8</ele>
        <time>2022-06-06T08:09:04.000Z</time>
      </trkpt>
      <trkpt lat="42.87993" lon="-0.40848">
        <ele>1494.67</ele>
        <time>2022-06-06T08:09:18.000Z</time>
      </trkpt>
      <trkpt lat="42.87982" lon="-0.4087">
        <ele>1512.31</ele>
        <time>2022-06-06T08:10:06.000Z</time>
      </trkpt>
      <trkpt lat="42.87968" lon="-0.40887">
        <ele>1506.57</ele>
        <time>2022-06-06T08:10:33.000Z</time>
      </trkpt>
      <trkpt lat="42.87955" lon="-0.40905">
        <ele>1513.93</ele>
        <time>2022-06-06T08:10:53.000Z</time>
      </trkpt>
      <trkpt lat="42.87942" lon="-0.40925">
        <ele>1515.7</ele>
        <time>2022-06-06T08:11:26.000Z</time>
      </trkpt>
      <trkpt lat="42.87928" lon="-0.40944">
        <ele>1523.39</ele>
        <time>2022-06-06T08:12:25.000Z</time>
      </trkpt>
      <trkpt lat="42.87916" lon="-0.40963">
        <ele>1520.79</ele>
        <time>2022-06-06T08:12:38.000Z</time>
      </trkpt>
      <trkpt lat="42.87901" lon="-0.40977">
        <ele>1521.26</ele>
        <time>2022-06-06T08:12:56.000Z</time>
      </trkpt>
      <trkpt lat="42.87886" lon="-0.4099">
        <ele>1525.77</ele>
        <time>2022-06-06T08:13:12.000Z</time>
      </trkpt>
      <trkpt lat="42.87871" lon="-0.41004">
        <ele>1526.02</ele>
        <time>2022-06-06T08:13:27.000Z</time>
      </trkpt>
      <trkpt lat="42.87858" lon="-0.41021">
        <ele>1531.48</ele>
        <time>2022-06-06T08:13:49.000Z</time>
      </trkpt>
      <trkpt lat="42.87842" lon="-0.41038">
        <ele>1537.93</ele>
        <time>2022-06-06T08:14:53.000Z</time>
      </trkpt>
      <trkpt lat="42.87827" lon="-0.4105">
        <ele>1543.21</ele>
        <time>2022-06-06T08:15:06.000Z</time>
      </trkpt>
      <trkpt lat="42.87809" lon="-0.41059">
        <ele>1543.71</ele>
        <time>2022-06-06T08:15:36.000Z</time>
      </trkpt>
      <trkpt lat="42.87793" lon="-0.41073">
        <ele>1543.43</ele>
        <time>2022-06-06T08:16:05.000Z</time>
      </trkpt>
      <trkpt lat="42.87796" lon="-0.41098">
        <ele>1553.69</ele>
        <time>2022-06-06T08:17:37.000Z</time>
      </trkpt>
      <trkpt lat="42.87796" lon="-0.41122">
        <ele>1566.61</ele>
        <time>2022-06-06T08:18:53.000Z</time>
      </trkpt>
      <trkpt lat="42.87792" lon="-0.41147">
        <ele>1581.89</ele>
        <time>2022-06-06T08:20:09.000Z</time>
      </trkpt>
      <trkpt lat="42.87779" lon="-0.41165">
        <ele>1589.96</ele>
        <time>2022-06-06T08:20:34.000Z</time>
      </trkpt>
      <trkpt lat="42.87766" lon="-0.41185">
        <ele>1602.62</ele>
        <time>2022-06-06T08:20:51.000Z</time>
      </trkpt>
      <trkpt lat="42.87752" lon="-0.41199">
        <ele>1603.92</ele>
        <time>2022-06-06T08:21:09.000Z</time>
      </trkpt>
      <trkpt lat="42.87733" lon="-0.41206">
        <ele>1611.97</ele>
        <time>2022-06-06T08:21:46.000Z</time>
      </trkpt>
      <trkpt lat="42.87716" lon="-0.41216">
        <ele>1608.03</ele>
        <time>2022-06-06T08:21:56.000Z</time>
      </trkpt>
      <trkpt lat="42.87699" lon="-0.41225">
        <ele>1608.97</ele>
        <time>2022-06-06T08:22:14.000Z</time>
      </trkpt>
      <trkpt lat="42.87682" lon="-0.41235">
        <ele>1616.27</ele>
        <time>2022-06-06T08:22:39.000Z</time>
      </trkpt>
      <trkpt lat="42.87665" lon="-0.41246">
        <ele>1614.87</ele>
        <time>2022-06-06T08:23:09.000Z</time>
      </trkpt>
      <trkpt lat="42.87653" lon="-0.41266">
        <ele>1616.93</ele>
        <time>2022-06-06T08:23:32.000Z</time>
      </trkpt>
      <trkpt lat="42.87643" lon="-0.41288">
        <ele>1620.1</ele>
        <time>2022-06-06T08:23:55.000Z</time>
      </trkpt>
      <trkpt lat="42.87625" lon="-0.41294">
        <ele>1628.09</ele>
        <time>2022-06-06T08:24:26.000Z</time>
      </trkpt>
      <trkpt lat="42.87607" lon="-0.41302">
        <ele>1635.12</ele>
        <time>2022-06-06T08:24:42.000Z</time>
      </trkpt>
      <trkpt lat="42.87596" lon="-0.41321">
        <ele>1637.25</ele>
        <time>2022-06-06T08:25:02.000Z</time>
      </trkpt>
      <trkpt lat="42.87583" lon="-0.41339">
        <ele>1636.93</ele>
        <time>2022-06-06T08:25:31.000Z</time>
      </trkpt>
      <trkpt lat="42.87568" lon="-0.41354">
        <ele>1640.98</ele>
        <time>2022-06-06T08:25:56.000Z</time>
      </trkpt>
      <trkpt lat="42.87557" lon="-0.41374">
        <ele>1632.98</ele>
        <time>2022-06-06T08:26:18.000Z</time>
      </trkpt>
      <trkpt lat="42.87541" lon="-0.41387">
        <ele>1635.94</ele>
        <time>2022-06-06T08:26:33.000Z</time>
      </trkpt>
      <trkpt lat="42.87523" lon="-0.41389">
        <ele>1640.35</ele>
        <time>2022-06-06T08:26:55.000Z</time>
      </trkpt>
      <trkpt lat="42.87505" lon="-0.4138">
        <ele>1643.38</ele>
        <time>2022-06-06T08:27:24.000Z</time>
      </trkpt>
      <trkpt lat="42.87491" lon="-0.41362">
        <ele>1641.02</ele>
        <time>2022-06-06T08:27:50.000Z</time>
      </trkpt>
      <trkpt lat="42.87475" lon="-0.41349">
        <ele>1641.42</ele>
        <time>2022-06-06T08:28:12.000Z</time>
      </trkpt>
      <trkpt lat="42.87458" lon="-0.41341">
        <ele>1648.5</ele>
        <time>2022-06-06T08:28:34.000Z</time>
      </trkpt>
      <trkpt lat="42.87453" lon="-0.41316">
        <ele>1649.05</ele>
        <time>2022-06-06T08:28:49.000Z</time>
      </trkpt>
      <trkpt lat="42.87443" lon="-0.41295">
        <ele>1653.29</ele>
        <time>2022-06-06T08:29:13.000Z</time>
      </trkpt>
      <trkpt lat="42.87439" lon="-0.4127">
        <ele>1663.23</ele>
        <time>2022-06-06T08:29:38.000Z</time>
      </trkpt>
      <trkpt lat="42.87429" lon="-0.41249">
        <ele>1661.31</ele>
        <time>2022-06-06T08:29:55.000Z</time>
      </trkpt>
      <trkpt lat="42.8741" lon="-0.41246">
        <ele>1669.21</ele>
        <time>2022-06-06T08:30:33.000Z</time>
      </trkpt>
      <trkpt lat="42.87421" lon="-0.41268">
        <ele>1681.93</ele>
        <time>2022-06-06T08:31:19.000Z</time>
      </trkpt>
      <trkpt lat="42.87426" lon="-0.41291">
        <ele>1689.13</ele>
        <time>2022-06-06T08:31:38.000Z</time>
      </trkpt>
      <trkpt lat="42.87421" lon="-0.41315">
        <ele>1697.64</ele>
        <time>2022-06-06T08:32:18.000Z</time>
      </trkpt>
      <trkpt lat="42.87402" lon="-0.41311">
        <ele>1695.53</ele>
        <time>2022-06-06T08:32:41.000Z</time>
      </trkpt>
      <trkpt lat="42.87384" lon="-0.41305">
        <ele>1703.05</ele>
        <time>2022-06-06T08:33:29.000Z</time>
      </trkpt>
      <trkpt lat="42.87375" lon="-0.41326">
        <ele>1717.26</ele>
        <time>2022-06-06T08:34:30.000Z</time>
      </trkpt>
      <trkpt lat="42.87358" lon="-0.41318">
        <ele>1723.29</ele>
        <time>2022-06-06T08:35:07.000Z</time>
      </trkpt>
      <trkpt lat="42.87344" lon="-0.41302">
        <ele>1723.16</ele>
        <time>2022-06-06T08:35:26.000Z</time>
      </trkpt>
      <trkpt lat="42.87329" lon="-0.41289">
        <ele>1730.18</ele>
        <time>2022-06-06T08:36:06.000Z</time>
      </trkpt>
      <trkpt lat="42.8731" lon="-0.41281">
        <ele>1735.23</ele>
        <time>2022-06-06T08:36:29.000Z</time>
      </trkpt>
      <trkpt lat="42.87293" lon="-0.41273">
        <ele>1734.97</ele>
        <time>2022-06-06T08:36:51.000Z</time>
      </trkpt>
      <trkpt lat="42.87277" lon="-0.41259">
        <ele>1734.51</ele>
        <time>2022-06-06T08:37:16.000Z</time>
      </trkpt>
      <trkpt lat="42.87265" lon="-0.41241">
        <ele>1739.17</ele>
        <time>2022-06-06T08:37:36.000Z</time>
      </trkpt>
      <trkpt lat="42.8725" lon="-0.41227">
        <ele>1743.82</ele>
        <time>2022-06-06T08:37:55.000Z</time>
      </trkpt>
      <trkpt lat="42.87232" lon="-0.41221">
        <ele>1740.03</ele>
        <time>2022-06-06T08:38:12.000Z</time>
      </trkpt>
      <trkpt lat="42.87215" lon="-0.41213">
        <ele>1748.55</ele>
        <time>2022-06-06T08:38:40.000Z</time>
      </trkpt>
      <trkpt lat="42.87197" lon="-0.41206">
        <ele>1753.91</ele>
        <time>2022-06-06T08:39:23.000Z</time>
      </trkpt>
      <trkpt lat="42.87179" lon="-0.412">
        <ele>1772.16</ele>
        <time>2022-06-06T08:49:51.000Z</time>
      </trkpt>
      <trkpt lat="42.8716" lon="-0.41201">
        <ele>1774.37</ele>
        <time>2022-06-06T08:50:22.000Z</time>
      </trkpt>
      <trkpt lat="42.87142" lon="-0.41198">
        <ele>1777.15</ele>
        <time>2022-06-06T08:50:40.000Z</time>
      </trkpt>
      <trkpt lat="42.87124" lon="-0.41195">
        <ele>1782.62</ele>
        <time>2022-06-06T08:50:58.000Z</time>
      </trkpt>
      <trkpt lat="42.87106" lon="-0.41196">
        <ele>1794.15</ele>
        <time>2022-06-06T08:52:20.000Z</time>
      </trkpt>
      <trkpt lat="42.87091" lon="-0.41183">
        <ele>1796.03</ele>
        <time>2022-06-06T08:52:48.000Z</time>
      </trkpt>
      <trkpt lat="42.87076" lon="-0.41196">
        <ele>1798.37</ele>
        <time>2022-06-06T08:53:15.000Z</time>
      </trkpt>
      <trkpt lat="42.87059" lon="-0.4121">
        <ele>1797.72</ele>
        <time>2022-06-06T08:53:41.000Z</time>
      </trkpt>
      <trkpt lat="42.87044" lon="-0.41224">
        <ele>1802.11</ele>
        <time>2022-06-06T08:53:59.000Z</time>
      </trkpt>
      <trkpt lat="42.87033" lon="-0.41244">
        <ele>1801.84</ele>
        <time>2022-06-06T08:54:16.000Z</time>
      </trkpt>
      <trkpt lat="42.87024" lon="-0.41266">
        <ele>1807.97</ele>
        <time>2022-06-06T08:54:36.000Z</time>
      </trkpt>
      <trkpt lat="42.87012" lon="-0.41286">
        <ele>1808.96</ele>
        <time>2022-06-06T08:54:54.000Z</time>
      </trkpt>
      <trkpt lat="42.87008" lon="-0.41311">
        <ele>1816.23</ele>
        <time>2022-06-06T08:55:56.000Z</time>
      </trkpt>
      <trkpt lat="42.87013" lon="-0.41335">
        <ele>1818.66</ele>
        <time>2022-06-06T08:56:22.000Z</time>
      </trkpt>
      <trkpt lat="42.87025" lon="-0.41355">
        <ele>1820.28</ele>
        <time>2022-06-06T08:56:43.000Z</time>
      </trkpt>
      <trkpt lat="42.8704" lon="-0.4137">
        <ele>1817.79</ele>
        <time>2022-06-06T08:57:02.000Z</time>
      </trkpt>
      <trkpt lat="42.87059" lon="-0.4137">
        <ele>1820.88</ele>
        <time>2022-06-06T08:57:22.000Z</time>
      </trkpt>
      <trkpt lat="42.87075" lon="-0.41383">
        <ele>1820.32</ele>
        <time>2022-06-06T08:57:39.000Z</time>
      </trkpt>
      <trkpt lat="42.87084" lon="-0.41405">
        <ele>1821.97</ele>
        <time>2022-06-06T08:58:03.000Z</time>
      </trkpt>
      <trkpt lat="42.87094" lon="-0.41427">
        <ele>1821.75</ele>
        <time>2022-06-06T08:58:26.000Z</time>
      </trkpt>
      <trkpt lat="42.8711" lon="-0.41439">
        <ele>1820.28</ele>
        <time>2022-06-06T08:58:52.000Z</time>
      </trkpt>
      <trkpt lat="42.87126" lon="-0.41451">
        <ele>1824.06</ele>
        <time>2022-06-06T08:59:11.000Z</time>
      </trkpt>
      <trkpt lat="42.87143" lon="-0.41459">
        <ele>1825.07</ele>
        <time>2022-06-06T08:59:37.000Z</time>
      </trkpt>
      <trkpt lat="42.87158" lon="-0.41474">
        <ele>1821.59</ele>
        <time>2022-06-06T08:59:56.000Z</time>
      </trkpt>
      <trkpt lat="42.87176" lon="-0.41478">
        <ele>1822.74</ele>
        <time>2022-06-06T09:00:12.000Z</time>
      </trkpt>
      <trkpt lat="42.87193" lon="-0.41487">
        <ele>1826.47</ele>
        <time>2022-06-06T09:01:03.000Z</time>
      </trkpt>
      <trkpt lat="42.87209" lon="-0.415">
        <ele>1831.62</ele>
        <time>2022-06-06T09:01:37.000Z</time>
      </trkpt>
      <trkpt lat="42.87221" lon="-0.41518">
        <ele>1834.62</ele>
        <time>2022-06-06T09:01:59.000Z</time>
      </trkpt>
      <trkpt lat="42.87233" lon="-0.41537">
        <ele>1843.82</ele>
        <time>2022-06-06T09:02:59.000Z</time>
      </trkpt>
      <trkpt lat="42.87247" lon="-0.41555">
        <ele>1850.17</ele>
        <time>2022-06-06T09:03:29.000Z</time>
      </trkpt>
      <trkpt lat="42.87266" lon="-0.4156">
        <ele>1852.14</ele>
        <time>2022-06-06T09:03:58.000Z</time>
      </trkpt>
      <trkpt lat="42.87279" lon="-0.41578">
        <ele>1855.24</ele>
        <time>2022-06-06T09:04:33.000Z</time>
      </trkpt>
      <trkpt lat="42.8729" lon="-0.41598">
        <ele>1857.89</ele>
        <time>2022-06-06T09:05:02.000Z</time>
      </trkpt>
      <trkpt lat="42.87291" lon="-0.41623">
        <ele>1863.1</ele>
        <time>2022-06-06T09:05:17.000Z</time>
      </trkpt>
      <trkpt lat="42.87287" lon="-0.41648">
        <ele>1867.92</ele>
        <time>2022-06-06T09:05:40.000Z</time>
      </trkpt>
      <trkpt lat="42.87284" lon="-0.41673">
        <ele>1867.98</ele>
        <time>2022-06-06T09:05:56.000Z</time>
      </trkpt>
      <trkpt lat="42.87281" lon="-0.41699">
        <ele>1872.44</ele>
        <time>2022-06-06T09:06:22.000Z</time>
      </trkpt>
      <trkpt lat="42.87278" lon="-0.41724">
        <ele>1875.53</ele>
        <time>2022-06-06T09:06:41.000Z</time>
      </trkpt>
      <trkpt lat="42.87276" lon="-0.41749">
        <ele>1874.32</ele>
        <time>2022-06-06T09:07:11.000Z</time>
      </trkpt>
      <trkpt lat="42.87277" lon="-0.41775">
        <ele>1877.37</ele>
        <time>2022-06-06T09:07:30.000Z</time>
      </trkpt>
      <trkpt lat="42.87278" lon="-0.418">
        <ele>1880.68</ele>
        <time>2022-06-06T09:07:50.000Z</time>
      </trkpt>
      <trkpt lat="42.87269" lon="-0.41822">
        <ele>1876.24</ele>
        <time>2022-06-06T09:08:11.000Z</time>
      </trkpt>
      <trkpt lat="42.87255" lon="-0.41841">
        <ele>1863.46</ele>
        <time>2022-06-06T09:08:24.000Z</time>
      </trkpt>
      <trkpt lat="42.87252" lon="-0.41866">
        <ele>1866.75</ele>
        <time>2022-06-06T09:08:46.000Z</time>
      </trkpt>
      <trkpt lat="42.87253" lon="-0.41891">
        <ele>1871.7</ele>
        <time>2022-06-06T09:08:59.000Z</time>
      </trkpt>
      <trkpt lat="42.87252" lon="-0.41916">
        <ele>1872.55</ele>
        <time>2022-06-06T09:09:14.000Z</time>
      </trkpt>
      <trkpt lat="42.87245" lon="-0.4194">
        <ele>1873.57</ele>
        <time>2022-06-06T09:09:33.000Z</time>
      </trkpt>
      <trkpt lat="42.87243" lon="-0.41967">
        <ele>1877.69</ele>
        <time>2022-06-06T09:09:55.000Z</time>
      </trkpt>
      <trkpt lat="42.87249" lon="-0.4199">
        <ele>1878.45</ele>
        <time>2022-06-06T09:10:18.000Z</time>
      </trkpt>
      <trkpt lat="42.87257" lon="-0.42013">
        <ele>1877.15</ele>
        <time>2022-06-06T09:10:35.000Z</time>
      </trkpt>
      <trkpt lat="42.87264" lon="-0.42036">
        <ele>1881.19</ele>
        <time>2022-06-06T09:11:02.000Z</time>
      </trkpt>
      <trkpt lat="42.8727" lon="-0.4206">
        <ele>1880.05</ele>
        <time>2022-06-06T09:12:40.000Z</time>
      </trkpt>
      <trkpt lat="42.87281" lon="-0.4208">
        <ele>1885.16</ele>
        <time>2022-06-06T09:13:24.000Z</time>
      </trkpt>
      <trkpt lat="42.87294" lon="-0.42096">
        <ele>1882.76</ele>
        <time>2022-06-06T09:13:45.000Z</time>
      </trkpt>
      <trkpt lat="42.87312" lon="-0.42103">
        <ele>1877.64</ele>
        <time>2022-06-06T09:14:04.000Z</time>
      </trkpt>
      <trkpt lat="42.87327" lon="-0.42118">
        <ele>1886.21</ele>
        <time>2022-06-06T09:14:23.000Z</time>
      </trkpt>
      <trkpt lat="42.87338" lon="-0.42139">
        <ele>1883.62</ele>
        <time>2022-06-06T09:15:11.000Z</time>
      </trkpt>
      <trkpt lat="42.87352" lon="-0.42154">
        <ele>1881.84</ele>
        <time>2022-06-06T09:15:31.000Z</time>
      </trkpt>
      <trkpt lat="42.87369" lon="-0.42163">
        <ele>1888.43</ele>
        <time>2022-06-06T09:15:47.000Z</time>
      </trkpt>
      <trkpt lat="42.87386" lon="-0.42173">
        <ele>1890.81</ele>
        <time>2022-06-06T09:16:04.000Z</time>
      </trkpt>
      <trkpt lat="42.87405" lon="-0.4218">
        <ele>1895.08</ele>
        <time>2022-06-06T09:16:31.000Z</time>
      </trkpt>
      <trkpt lat="42.8741" lon="-0.42204">
        <ele>1891.49</ele>
        <time>2022-06-06T09:17:00.000Z</time>
      </trkpt>
      <trkpt lat="42.87428" lon="-0.42205">
        <ele>1906.72</ele>
        <time>2022-06-06T09:17:43.000Z</time>
      </trkpt>
      <trkpt lat="42.87446" lon="-0.42197">
        <ele>1914.01</ele>
        <time>2022-06-06T09:18:12.000Z</time>
      </trkpt>
      <trkpt lat="42.87463" lon="-0.42188">
        <ele>1920.65</ele>
        <time>2022-06-06T09:18:36.000Z</time>
      </trkpt>
      <trkpt lat="42.87482" lon="-0.4219">
        <ele>1920.24</ele>
        <time>2022-06-06T09:19:00.000Z</time>
      </trkpt>
      <trkpt lat="42.875" lon="-0.42198">
        <ele>1926.88</ele>
        <time>2022-06-06T09:19:54.000Z</time>
      </trkpt>
      <trkpt lat="42.87518" lon="-0.42202">
        <ele>1943.52</ele>
        <time>2022-06-06T09:21:01.000Z</time>
      </trkpt>
      <trkpt lat="42.87536" lon="-0.42194">
        <ele>1961.65</ele>
        <time>2022-06-06T09:21:56.000Z</time>
      </trkpt>
      <trkpt lat="42.8755" lon="-0.42179">
        <ele>1975.24</ele>
        <time>2022-06-06T09:22:51.000Z</time>
      </trkpt>
      <trkpt lat="42.87559" lon="-0.42156">
        <ele>1980.99</ele>
        <time>2022-06-06T09:23:35.000Z</time>
      </trkpt>
      <trkpt lat="42.87573" lon="-0.4214">
        <ele>1985.36</ele>
        <time>2022-06-06T09:24:07.000Z</time>
      </trkpt>
      <trkpt lat="42.87589" lon="-0.4213">
        <ele>2002.55</ele>
        <time>2022-06-06T09:25:46.000Z</time>
      </trkpt>
      <trkpt lat="42.87608" lon="-0.42127">
        <ele>2011.99</ele>
        <time>2022-06-06T09:32:01.000Z</time>
      </trkpt>
      <trkpt lat="42.87591" lon="-0.42136">
        <ele>2001.08</ele>
        <time>2022-06-06T09:34:54.000Z</time>
      </trkpt>
      <trkpt lat="42.87573" lon="-0.42143">
        <ele>1987.23</ele>
        <time>2022-06-06T09:37:11.000Z</time>
      </trkpt>
      <trkpt lat="42.8756" lon="-0.42162">
        <ele>1977.81</ele>
        <time>2022-06-06T09:37:37.000Z</time>
      </trkpt>
      <trkpt lat="42.87548" lon="-0.4218">
        <ele>1969.78</ele>
        <time>2022-06-06T09:38:46.000Z</time>
      </trkpt>
      <trkpt lat="42.87539" lon="-0.42203">
        <ele>1970.48</ele>
        <time>2022-06-06T09:39:15.000Z</time>
      </trkpt>
      <trkpt lat="42.8752" lon="-0.42206">
        <ele>1949.66</ele>
        <time>2022-06-06T09:40:07.000Z</time>
      </trkpt>
      <trkpt lat="42.87504" lon="-0.42194">
        <ele>1942.94</ele>
        <time>2022-06-06T09:41:36.000Z</time>
      </trkpt>
      <trkpt lat="42.87487" lon="-0.42188">
        <ele>1932.13</ele>
        <time>2022-06-06T09:42:17.000Z</time>
      </trkpt>
      <trkpt lat="42.87468" lon="-0.42188">
        <ele>1923.65</ele>
        <time>2022-06-06T09:43:00.000Z</time>
      </trkpt>
      <trkpt lat="42.87451" lon="-0.42201">
        <ele>1914.93</ele>
        <time>2022-06-06T09:43:24.000Z</time>
      </trkpt>
      <trkpt lat="42.87434" lon="-0.4221">
        <ele>1913.67</ele>
        <time>2022-06-06T09:43:42.000Z</time>
      </trkpt>
      <trkpt lat="42.87415" lon="-0.42211">
        <ele>1908.07</ele>
        <time>2022-06-06T09:45:27.000Z</time>
      </trkpt>
      <trkpt lat="42.87408" lon="-0.42188">
        <ele>1909.36</ele>
        <time>2022-06-06T09:48:34.000Z</time>
      </trkpt>
      <trkpt lat="42.87392" lon="-0.42175">
        <ele>1900.9</ele>
        <time>2022-06-06T09:49:10.000Z</time>
      </trkpt>
      <trkpt lat="42.87374" lon="-0.4217">
        <ele>1898.67</ele>
        <time>2022-06-06T09:49:26.000Z</time>
      </trkpt>
      <trkpt lat="42.87359" lon="-0.42158">
        <ele>1894.56</ele>
        <time>2022-06-06T09:49:44.000Z</time>
      </trkpt>
      <trkpt lat="42.87342" lon="-0.42147">
        <ele>1892.37</ele>
        <time>2022-06-06T09:50:04.000Z</time>
      </trkpt>
      <trkpt lat="42.87324" lon="-0.42139">
        <ele>1894.56</ele>
        <time>2022-06-06T09:50:36.000Z</time>
      </trkpt>
      <trkpt lat="42.87306" lon="-0.42138">
        <ele>1898.53</ele>
        <time>2022-06-06T09:50:54.000Z</time>
      </trkpt>
      <trkpt lat="42.87287" lon="-0.42138">
        <ele>1897</ele>
        <time>2022-06-06T09:51:17.000Z</time>
      </trkpt>
      <trkpt lat="42.87269" lon="-0.42143">
        <ele>1895.81</ele>
        <time>2022-06-06T09:51:35.000Z</time>
      </trkpt>
      <trkpt lat="42.87251" lon="-0.42147">
        <ele>1902.33</ele>
        <time>2022-06-06T09:52:04.000Z</time>
      </trkpt>
      <trkpt lat="42.87238" lon="-0.42165">
        <ele>1905.24</ele>
        <time>2022-06-06T09:52:39.000Z</time>
      </trkpt>
      <trkpt lat="42.87241" lon="-0.42189">
        <ele>1919.84</ele>
        <time>2022-06-06T09:53:29.000Z</time>
      </trkpt>
      <trkpt lat="42.87239" lon="-0.42214">
        <ele>1926.99</ele>
        <time>2022-06-06T09:54:04.000Z</time>
      </trkpt>
      <trkpt lat="42.8722" lon="-0.42211">
        <ele>1934.48</ele>
        <time>2022-06-06T09:54:49.000Z</time>
      </trkpt>
      <trkpt lat="42.87202" lon="-0.42209">
        <ele>1937.36</ele>
        <time>2022-06-06T09:55:14.000Z</time>
      </trkpt>
      <trkpt lat="42.87188" lon="-0.42194">
        <ele>1938.05</ele>
        <time>2022-06-06T09:55:32.000Z</time>
      </trkpt>
      <trkpt lat="42.87172" lon="-0.42181">
        <ele>1944.55</ele>
        <time>2022-06-06T09:56:04.000Z</time>
      </trkpt>
      <trkpt lat="42.87159" lon="-0.42164">
        <ele>1954.63</ele>
        <time>2022-06-06T09:56:50.000Z</time>
      </trkpt>
      <trkpt lat="42.87143" lon="-0.42153">
        <ele>1957.63</ele>
        <time>2022-06-06T09:57:29.000Z</time>
      </trkpt>
      <trkpt lat="42.87143" lon="-0.42128">
        <ele>1968.34</ele>
        <time>2022-06-06T09:58:36.000Z</time>
      </trkpt>
      <trkpt lat="42.87129" lon="-0.42111">
        <ele>1988.43</ele>
        <time>2022-06-06T09:59:33.000Z</time>
      </trkpt>
      <trkpt lat="42.87118" lon="-0.42091">
        <ele>1999.65</ele>
        <time>2022-06-06T10:00:02.000Z</time>
      </trkpt>
      <trkpt lat="42.87101" lon="-0.4208">
        <ele>1998.51</ele>
        <time>2022-06-06T10:00:29.000Z</time>
      </trkpt>
      <trkpt lat="42.87083" lon="-0.42075">
        <ele>1999.68</ele>
        <time>2022-06-06T10:00:48.000Z</time>
      </trkpt>
      <trkpt lat="42.87066" lon="-0.42065">
        <ele>1998.66</ele>
        <time>2022-06-06T10:01:06.000Z</time>
      </trkpt>
      <trkpt lat="42.87051" lon="-0.42052">
        <ele>2003.06</ele>
        <time>2022-06-06T10:01:31.000Z</time>
      </trkpt>
      <trkpt lat="42.87035" lon="-0.42039">
        <ele>2004.11</ele>
        <time>2022-06-06T10:01:55.000Z</time>
      </trkpt>
      <trkpt lat="42.87019" lon="-0.42028">
        <ele>2015.98</ele>
        <time>2022-06-06T10:02:33.000Z</time>
      </trkpt>
      <trkpt lat="42.8701" lon="-0.42005">
        <ele>2019.6</ele>
        <time>2022-06-06T10:02:59.000Z</time>
      </trkpt>
      <trkpt lat="42.87002" lon="-0.41983">
        <ele>2025.68</ele>
        <time>2022-06-06T10:03:34.000Z</time>
      </trkpt>
      <trkpt lat="42.86985" lon="-0.41973">
        <ele>2027.92</ele>
        <time>2022-06-06T10:04:02.000Z</time>
      </trkpt>
      <trkpt lat="42.86967" lon="-0.41973">
        <ele>2029.88</ele>
        <time>2022-06-06T10:04:19.000Z</time>
      </trkpt>
      <trkpt lat="42.86948" lon="-0.41969">
        <ele>2028.77</ele>
        <time>2022-06-06T10:04:45.000Z</time>
      </trkpt>
      <trkpt lat="42.8693" lon="-0.41963">
        <ele>2032.2</ele>
        <time>2022-06-06T10:05:11.000Z</time>
      </trkpt>
      <trkpt lat="42.86913" lon="-0.41956">
        <ele>2027.8</ele>
        <time>2022-06-06T10:05:29.000Z</time>
      </trkpt>
      <trkpt lat="42.86895" lon="-0.41949">
        <ele>2029.23</ele>
        <time>2022-06-06T10:05:45.000Z</time>
      </trkpt>
      <trkpt lat="42.86879" lon="-0.41939">
        <ele>2025.55</ele>
        <time>2022-06-06T10:06:03.000Z</time>
      </trkpt>
      <trkpt lat="42.8686" lon="-0.41936">
        <ele>2032.2</ele>
        <time>2022-06-06T10:06:20.000Z</time>
      </trkpt>
      <trkpt lat="42.86843" lon="-0.41928">
        <ele>2028.05</ele>
        <time>2022-06-06T10:06:35.000Z</time>
      </trkpt>
      <trkpt lat="42.86824" lon="-0.41924">
        <ele>2034.98</ele>
        <time>2022-06-06T10:06:52.000Z</time>
      </trkpt>
      <trkpt lat="42.86807" lon="-0.41915">
        <ele>2037.87</ele>
        <time>2022-06-06T10:07:09.000Z</time>
      </trkpt>
      <trkpt lat="42.86789" lon="-0.41907">
        <ele>2039.27</ele>
        <time>2022-06-06T10:07:30.000Z</time>
      </trkpt>
      <trkpt lat="42.86771" lon="-0.41905">
        <ele>2045.42</ele>
        <time>2022-06-06T10:07:50.000Z</time>
      </trkpt>
      <trkpt lat="42.86753" lon="-0.419">
        <ele>2048.09</ele>
        <time>2022-06-06T10:08:07.000Z</time>
      </trkpt>
      <trkpt lat="42.86735" lon="-0.41892">
        <ele>2045.7</ele>
        <time>2022-06-06T10:08:25.000Z</time>
      </trkpt>
      <trkpt lat="42.86718" lon="-0.41884">
        <ele>2046.97</ele>
        <time>2022-06-06T10:08:49.000Z</time>
      </trkpt>
      <trkpt lat="42.867" lon="-0.41876">
        <ele>2050.92</ele>
        <time>2022-06-06T10:09:15.000Z</time>
      </trkpt>
      <trkpt lat="42.86685" lon="-0.41862">
        <ele>2054.82</ele>
        <time>2022-06-06T10:09:35.000Z</time>
      </trkpt>
      <trkpt lat="42.86667" lon="-0.41857">
        <ele>2055.49</ele>
        <time>2022-06-06T10:09:56.000Z</time>
      </trkpt>
      <trkpt lat="42.86648" lon="-0.41851">
        <ele>2054.08</ele>
        <time>2022-06-06T10:10:13.000Z</time>
      </trkpt>
      <trkpt lat="42.86632" lon="-0.41838">
        <ele>2057.82</ele>
        <time>2022-06-06T10:10:30.000Z</time>
      </trkpt>
      <trkpt lat="42.86619" lon="-0.4182">
        <ele>2059.33</ele>
        <time>2022-06-06T10:10:47.000Z</time>
      </trkpt>
      <trkpt lat="42.86601" lon="-0.41812">
        <ele>2065.18</ele>
        <time>2022-06-06T10:11:10.000Z</time>
      </trkpt>
      <trkpt lat="42.86585" lon="-0.41801">
        <ele>2070.69</ele>
        <time>2022-06-06T10:11:30.000Z</time>
      </trkpt>
      <trkpt lat="42.8657" lon="-0.41787">
        <ele>2072.17</ele>
        <time>2022-06-06T10:11:56.000Z</time>
      </trkpt>
      <trkpt lat="42.86555" lon="-0.41772">
        <ele>2074.63</ele>
        <time>2022-06-06T10:12:24.000Z</time>
      </trkpt>
      <trkpt lat="42.86543" lon="-0.41753">
        <ele>2078.04</ele>
        <time>2022-06-06T10:12:47.000Z</time>
      </trkpt>
      <trkpt lat="42.86527" lon="-0.41738">
        <ele>2078.47</ele>
        <time>2022-06-06T10:13:11.000Z</time>
      </trkpt>
      <trkpt lat="42.86513" lon="-0.41721">
        <ele>2081.15</ele>
        <time>2022-06-06T10:13:30.000Z</time>
      </trkpt>
      <trkpt lat="42.86501" lon="-0.41703">
        <ele>2080.73</ele>
        <time>2022-06-06T10:13:48.000Z</time>
      </trkpt>
      <trkpt lat="42.86487" lon="-0.41685">
        <ele>2086.85</ele>
        <time>2022-06-06T10:14:16.000Z</time>
      </trkpt>
      <trkpt lat="42.86472" lon="-0.41673">
        <ele>2090.24</ele>
        <time>2022-06-06T10:14:41.000Z</time>
      </trkpt>
      <trkpt lat="42.86458" lon="-0.41657">
        <ele>2095.54</ele>
        <time>2022-06-06T10:15:06.000Z</time>
      </trkpt>
      <trkpt lat="42.86443" lon="-0.41641">
        <ele>2103.71</ele>
        <time>2022-06-06T10:15:31.000Z</time>
      </trkpt>
      <trkpt lat="42.86427" lon="-0.41627">
        <ele>2106.88</ele>
        <time>2022-06-06T10:15:53.000Z</time>
      </trkpt>
      <trkpt lat="42.86412" lon="-0.41613">
        <ele>2111.79</ele>
        <time>2022-06-06T10:16:18.000Z</time>
      </trkpt>
      <trkpt lat="42.86396" lon="-0.416">
        <ele>2117.14</ele>
        <time>2022-06-06T10:16:38.000Z</time>
      </trkpt>
      <trkpt lat="42.86384" lon="-0.41581">
        <ele>2122.58</ele>
        <time>2022-06-06T10:17:00.000Z</time>
      </trkpt>
      <trkpt lat="42.86371" lon="-0.41563">
        <ele>2127</ele>
        <time>2022-06-06T10:17:23.000Z</time>
      </trkpt>
      <trkpt lat="42.86354" lon="-0.41553">
        <ele>2134.92</ele>
        <time>2022-06-06T10:17:49.000Z</time>
      </trkpt>
      <trkpt lat="42.86342" lon="-0.41534">
        <ele>2140.35</ele>
        <time>2022-06-06T10:18:17.000Z</time>
      </trkpt>
      <trkpt lat="42.86328" lon="-0.41519">
        <ele>2144.57</ele>
        <time>2022-06-06T10:18:48.000Z</time>
      </trkpt>
      <trkpt lat="42.8631" lon="-0.4151">
        <ele>2147.25</ele>
        <time>2022-06-06T10:19:15.000Z</time>
      </trkpt>
      <trkpt lat="42.86293" lon="-0.41502">
        <ele>2151.62</ele>
        <time>2022-06-06T10:19:54.000Z</time>
      </trkpt>
      <trkpt lat="42.86278" lon="-0.41487">
        <ele>2165.53</ele>
        <time>2022-06-06T10:20:48.000Z</time>
      </trkpt>
      <trkpt lat="42.86266" lon="-0.41469">
        <ele>2172.34</ele>
        <time>2022-06-06T10:21:23.000Z</time>
      </trkpt>
      <trkpt lat="42.86252" lon="-0.41452">
        <ele>2167.97</ele>
        <time>2022-06-06T10:22:02.000Z</time>
      </trkpt>
      <trkpt lat="42.86238" lon="-0.41435">
        <ele>2169.27</ele>
        <time>2022-06-06T10:22:27.000Z</time>
      </trkpt>
      <trkpt lat="42.86224" lon="-0.4142">
        <ele>2173.64</ele>
        <time>2022-06-06T10:22:50.000Z</time>
      </trkpt>
      <trkpt lat="42.86207" lon="-0.41408">
        <ele>2180.72</ele>
        <time>2022-06-06T10:23:23.000Z</time>
      </trkpt>
      <trkpt lat="42.86195" lon="-0.41388">
        <ele>2182.84</ele>
        <time>2022-06-06T10:23:50.000Z</time>
      </trkpt>
      <trkpt lat="42.86179" lon="-0.41378">
        <ele>2191.81</ele>
        <time>2022-06-06T10:24:28.000Z</time>
      </trkpt>
      <trkpt lat="42.86162" lon="-0.41368">
        <ele>2198.14</ele>
        <time>2022-06-06T10:25:14.000Z</time>
      </trkpt>
      <trkpt lat="42.86147" lon="-0.41354">
        <ele>2201.6</ele>
        <time>2022-06-06T10:25:43.000Z</time>
      </trkpt>
      <trkpt lat="42.86133" lon="-0.41338">
        <ele>2197.2</ele>
        <time>2022-06-06T10:26:11.000Z</time>
      </trkpt>
      <trkpt lat="42.86144" lon="-0.41357">
        <ele>2200.8</ele>
        <time>2022-06-06T11:10:31.000Z</time>
      </trkpt>
      <trkpt lat="42.8616" lon="-0.41371">
        <ele>2202.86</ele>
        <time>2022-06-06T11:11:53.000Z</time>
      </trkpt>
      <trkpt lat="42.86177" lon="-0.4138">
        <ele>2196.58</ele>
        <time>2022-06-06T11:12:38.000Z</time>
      </trkpt>
      <trkpt lat="42.86194" lon="-0.41393">
        <ele>2192.41</ele>
        <time>2022-06-06T11:13:27.000Z</time>
      </trkpt>
      <trkpt lat="42.86207" lon="-0.41411">
        <ele>2182.77</ele>
        <time>2022-06-06T11:14:10.000Z</time>
      </trkpt>
      <trkpt lat="42.86221" lon="-0.41429">
        <ele>2175.73</ele>
        <time>2022-06-06T11:14:44.000Z</time>
      </trkpt>
      <trkpt lat="42.86237" lon="-0.41442">
        <ele>2176.69</ele>
        <time>2022-06-06T11:15:02.000Z</time>
      </trkpt>
      <trkpt lat="42.86252" lon="-0.41455">
        <ele>2176.82</ele>
        <time>2022-06-06T11:15:52.000Z</time>
      </trkpt>
      <trkpt lat="42.86263" lon="-0.41474">
        <ele>2178.91</ele>
        <time>2022-06-06T11:16:21.000Z</time>
      </trkpt>
      <trkpt lat="42.86276" lon="-0.41492">
        <ele>2175.03</ele>
        <time>2022-06-06T11:16:50.000Z</time>
      </trkpt>
      <trkpt lat="42.86292" lon="-0.41506">
        <ele>2170.87</ele>
        <time>2022-06-06T11:17:17.000Z</time>
      </trkpt>
      <trkpt lat="42.86309" lon="-0.41515">
        <ele>2146.05</ele>
        <time>2022-06-06T11:18:20.000Z</time>
      </trkpt>
      <trkpt lat="42.86326" lon="-0.41523">
        <ele>2144.63</ele>
        <time>2022-06-06T11:18:49.000Z</time>
      </trkpt>
      <trkpt lat="42.86341" lon="-0.41539">
        <ele>2144.19</ele>
        <time>2022-06-06T11:19:39.000Z</time>
      </trkpt>
      <trkpt lat="42.86357" lon="-0.41554">
        <ele>2145.4</ele>
        <time>2022-06-06T11:20:01.000Z</time>
      </trkpt>
      <trkpt lat="42.86374" lon="-0.41564">
        <ele>2144</ele>
        <time>2022-06-06T11:20:18.000Z</time>
      </trkpt>
      <trkpt lat="42.86387" lon="-0.41581">
        <ele>2136.71</ele>
        <time>2022-06-06T11:21:48.000Z</time>
      </trkpt>
      <trkpt lat="42.864" lon="-0.416">
        <ele>2132.85</ele>
        <time>2022-06-06T11:22:12.000Z</time>
      </trkpt>
      <trkpt lat="42.86417" lon="-0.41611">
        <ele>2133.31</ele>
        <time>2022-06-06T11:22:27.000Z</time>
      </trkpt>
      <trkpt lat="42.86433" lon="-0.41626">
        <ele>2128.72</ele>
        <time>2022-06-06T11:22:48.000Z</time>
      </trkpt>
      <trkpt lat="42.86449" lon="-0.41639">
        <ele>2120.21</ele>
        <time>2022-06-06T11:23:15.000Z</time>
      </trkpt>
      <trkpt lat="42.86464" lon="-0.41653">
        <ele>2116.88</ele>
        <time>2022-06-06T11:23:38.000Z</time>
      </trkpt>
      <trkpt lat="42.86475" lon="-0.41672">
        <ele>2115.88</ele>
        <time>2022-06-06T11:24:02.000Z</time>
      </trkpt>
      <trkpt lat="42.86492" lon="-0.41682">
        <ele>2105.45</ele>
        <time>2022-06-06T11:24:29.000Z</time>
      </trkpt>
      <trkpt lat="42.86504" lon="-0.41701">
        <ele>2098.54</ele>
        <time>2022-06-06T11:24:57.000Z</time>
      </trkpt>
      <trkpt lat="42.86517" lon="-0.41723">
        <ele>2091.41</ele>
        <time>2022-06-06T11:25:16.000Z</time>
      </trkpt>
      <trkpt lat="42.86529" lon="-0.41742">
        <ele>2088.4</ele>
        <time>2022-06-06T11:25:37.000Z</time>
      </trkpt>
      <trkpt lat="42.86546" lon="-0.41754">
        <ele>2084.88</ele>
        <time>2022-06-06T11:25:54.000Z</time>
      </trkpt>
      <trkpt lat="42.86558" lon="-0.41773">
        <ele>2085.53</ele>
        <time>2022-06-06T11:26:10.000Z</time>
      </trkpt>
      <trkpt lat="42.86572" lon="-0.41788">
        <ele>2076.79</ele>
        <time>2022-06-06T11:26:37.000Z</time>
      </trkpt>
      <trkpt lat="42.86588" lon="-0.41802">
        <ele>2072.7</ele>
        <time>2022-06-06T11:26:58.000Z</time>
      </trkpt>
      <trkpt lat="42.86604" lon="-0.41814">
        <ele>2072.26</ele>
        <time>2022-06-06T11:27:14.000Z</time>
      </trkpt>
      <trkpt lat="42.86622" lon="-0.41823">
        <ele>2070.32</ele>
        <time>2022-06-06T11:27:39.000Z</time>
      </trkpt>
      <trkpt lat="42.86636" lon="-0.41841">
        <ele>2066.62</ele>
        <time>2022-06-06T11:28:01.000Z</time>
      </trkpt>
      <trkpt lat="42.86652" lon="-0.41853">
        <ele>2065.7</ele>
        <time>2022-06-06T11:28:16.000Z</time>
      </trkpt>
      <trkpt lat="42.8667" lon="-0.41859">
        <ele>2065.28</ele>
        <time>2022-06-06T11:28:28.000Z</time>
      </trkpt>
      <trkpt lat="42.86687" lon="-0.41868">
        <ele>2059.76</ele>
        <time>2022-06-06T11:28:47.000Z</time>
      </trkpt>
      <trkpt lat="42.86703" lon="-0.41883">
        <ele>2058.64</ele>
        <time>2022-06-06T11:29:04.000Z</time>
      </trkpt>
      <trkpt lat="42.86721" lon="-0.41888">
        <ele>2051.19</ele>
        <time>2022-06-06T11:29:31.000Z</time>
      </trkpt>
      <trkpt lat="42.86738" lon="-0.41895">
        <ele>2040.92</ele>
        <time>2022-06-06T11:29:54.000Z</time>
      </trkpt>
      <trkpt lat="42.86755" lon="-0.41904">
        <ele>2037.99</ele>
        <time>2022-06-06T11:30:14.000Z</time>
      </trkpt>
      <trkpt lat="42.86773" lon="-0.4191">
        <ele>2037.72</ele>
        <time>2022-06-06T11:30:30.000Z</time>
      </trkpt>
      <trkpt lat="42.86792" lon="-0.41913">
        <ele>2036.94</ele>
        <time>2022-06-06T11:30:51.000Z</time>
      </trkpt>
      <trkpt lat="42.86812" lon="-0.41916">
        <ele>2034.79</ele>
        <time>2022-06-06T11:31:13.000Z</time>
      </trkpt>
      <trkpt lat="42.86828" lon="-0.41927">
        <ele>2032.22</ele>
        <time>2022-06-06T11:31:21.000Z</time>
      </trkpt>
      <trkpt lat="42.86846" lon="-0.41934">
        <ele>2027.42</ele>
        <time>2022-06-06T11:31:42.000Z</time>
      </trkpt>
      <trkpt lat="42.86863" lon="-0.41946">
        <ele>2023.56</ele>
        <time>2022-06-06T11:32:01.000Z</time>
      </trkpt>
      <trkpt lat="42.8688" lon="-0.41955">
        <ele>2020.27</ele>
        <time>2022-06-06T11:32:25.000Z</time>
      </trkpt>
      <trkpt lat="42.86898" lon="-0.41962">
        <ele>2017.5</ele>
        <time>2022-06-06T11:32:42.000Z</time>
      </trkpt>
      <trkpt lat="42.86916" lon="-0.41971">
        <ele>2017.86</ele>
        <time>2022-06-06T11:32:59.000Z</time>
      </trkpt>
      <trkpt lat="42.86935" lon="-0.4197">
        <ele>2016.61</ele>
        <time>2022-06-06T11:33:22.000Z</time>
      </trkpt>
      <trkpt lat="42.86954" lon="-0.41978">
        <ele>2015.81</ele>
        <time>2022-06-06T11:33:34.000Z</time>
      </trkpt>
      <trkpt lat="42.86973" lon="-0.41979">
        <ele>2016.17</ele>
        <time>2022-06-06T11:33:44.000Z</time>
      </trkpt>
      <trkpt lat="42.8699" lon="-0.41986">
        <ele>2011.92</ele>
        <time>2022-06-06T11:34:14.000Z</time>
      </trkpt>
      <trkpt lat="42.87005" lon="-0.42001">
        <ele>2009.84</ele>
        <time>2022-06-06T11:34:40.000Z</time>
      </trkpt>
      <trkpt lat="42.87019" lon="-0.42017">
        <ele>2013.35</ele>
        <time>2022-06-06T11:35:07.000Z</time>
      </trkpt>
      <trkpt lat="42.87027" lon="-0.42039">
        <ele>2008.62</ele>
        <time>2022-06-06T11:35:37.000Z</time>
      </trkpt>
      <trkpt lat="42.87045" lon="-0.4205">
        <ele>2003.16</ele>
        <time>2022-06-06T11:36:21.000Z</time>
      </trkpt>
      <trkpt lat="42.87062" lon="-0.42061">
        <ele>2000.42</ele>
        <time>2022-06-06T11:36:35.000Z</time>
      </trkpt>
      <trkpt lat="42.87076" lon="-0.42078">
        <ele>1992.85</ele>
        <time>2022-06-06T11:36:55.000Z</time>
      </trkpt>
      <trkpt lat="42.87094" lon="-0.4208">
        <ele>1993.05</ele>
        <time>2022-06-06T11:37:11.000Z</time>
      </trkpt>
      <trkpt lat="42.87111" lon="-0.4209">
        <ele>1992.74</ele>
        <time>2022-06-06T11:37:32.000Z</time>
      </trkpt>
      <trkpt lat="42.87123" lon="-0.4211">
        <ele>1983.47</ele>
        <time>2022-06-06T11:38:04.000Z</time>
      </trkpt>
      <trkpt lat="42.87137" lon="-0.42128">
        <ele>1971.84</ele>
        <time>2022-06-06T11:38:51.000Z</time>
      </trkpt>
      <trkpt lat="42.87145" lon="-0.4215">
        <ele>1967.99</ele>
        <time>2022-06-06T11:40:12.000Z</time>
      </trkpt>
      <trkpt lat="42.87162" lon="-0.42164">
        <ele>1954.75</ele>
        <time>2022-06-06T11:40:48.000Z</time>
      </trkpt>
      <trkpt lat="42.87172" lon="-0.42185">
        <ele>1948.08</ele>
        <time>2022-06-06T11:41:39.000Z</time>
      </trkpt>
      <trkpt lat="42.87186" lon="-0.42201">
        <ele>1936.56</ele>
        <time>2022-06-06T11:42:08.000Z</time>
      </trkpt>
      <trkpt lat="42.87203" lon="-0.42213">
        <ele>1936.13</ele>
        <time>2022-06-06T11:42:20.000Z</time>
      </trkpt>
      <trkpt lat="42.87221" lon="-0.42217">
        <ele>1933.33</ele>
        <time>2022-06-06T11:42:42.000Z</time>
      </trkpt>
      <trkpt lat="42.87239" lon="-0.4222">
        <ele>1927.23</ele>
        <time>2022-06-06T11:43:25.000Z</time>
      </trkpt>
      <trkpt lat="42.87233" lon="-0.42196">
        <ele>1918.75</ele>
        <time>2022-06-06T11:44:07.000Z</time>
      </trkpt>
      <trkpt lat="42.87228" lon="-0.42172">
        <ele>1914.11</ele>
        <time>2022-06-06T11:44:30.000Z</time>
      </trkpt>
      <trkpt lat="42.87231" lon="-0.42147">
        <ele>1903.26</ele>
        <time>2022-06-06T11:45:04.000Z</time>
      </trkpt>
      <trkpt lat="42.87236" lon="-0.42123">
        <ele>1903.28</ele>
        <time>2022-06-06T11:45:40.000Z</time>
      </trkpt>
      <trkpt lat="42.87242" lon="-0.42099">
        <ele>1889.04</ele>
        <time>2022-06-06T11:46:20.000Z</time>
      </trkpt>
      <trkpt lat="42.87246" lon="-0.42074">
        <ele>1884.25</ele>
        <time>2022-06-06T11:46:57.000Z</time>
      </trkpt>
      <trkpt lat="42.8725" lon="-0.42049">
        <ele>1882.06</ele>
        <time>2022-06-06T11:47:39.000Z</time>
      </trkpt>
      <trkpt lat="42.87249" lon="-0.42025">
        <ele>1881.32</ele>
        <time>2022-06-06T11:48:17.000Z</time>
      </trkpt>
      <trkpt lat="42.87245" lon="-0.42">
        <ele>1873.53</ele>
        <time>2022-06-06T11:48:51.000Z</time>
      </trkpt>
      <trkpt lat="42.87244" lon="-0.41975">
        <ele>1870.41</ele>
        <time>2022-06-06T11:49:37.000Z</time>
      </trkpt>
      <trkpt lat="42.87244" lon="-0.41951">
        <ele>1870.39</ele>
        <time>2022-06-06T11:51:09.000Z</time>
      </trkpt>
      <trkpt lat="42.87246" lon="-0.41925">
        <ele>1867.53</ele>
        <time>2022-06-06T11:52:44.000Z</time>
      </trkpt>
      <trkpt lat="42.87252" lon="-0.41901">
        <ele>1867.26</ele>
        <time>2022-06-06T11:53:02.000Z</time>
      </trkpt>
      <trkpt lat="42.87252" lon="-0.41875">
        <ele>1866.64</ele>
        <time>2022-06-06T11:53:34.000Z</time>
      </trkpt>
      <trkpt lat="42.87257" lon="-0.41849">
        <ele>1870.82</ele>
        <time>2022-06-06T11:53:49.000Z</time>
      </trkpt>
      <trkpt lat="42.87271" lon="-0.41832">
        <ele>1870.44</ele>
        <time>2022-06-06T11:54:07.000Z</time>
      </trkpt>
      <trkpt lat="42.87282" lon="-0.4181">
        <ele>1871.99</ele>
        <time>2022-06-06T11:54:29.000Z</time>
      </trkpt>
      <trkpt lat="42.8728" lon="-0.41783">
        <ele>1865.52</ele>
        <time>2022-06-06T11:54:49.000Z</time>
      </trkpt>
      <trkpt lat="42.87281" lon="-0.41758">
        <ele>1865.57</ele>
        <time>2022-06-06T11:54:59.000Z</time>
      </trkpt>
      <trkpt lat="42.87277" lon="-0.41733">
        <ele>1855.15</ele>
        <time>2022-06-06T11:55:31.000Z</time>
      </trkpt>
      <trkpt lat="42.87279" lon="-0.41708">
        <ele>1849.69</ele>
        <time>2022-06-06T11:55:44.000Z</time>
      </trkpt>
      <trkpt lat="42.87286" lon="-0.41684">
        <ele>1854.23</ele>
        <time>2022-06-06T11:55:59.000Z</time>
      </trkpt>
      <trkpt lat="42.87287" lon="-0.41659">
        <ele>1849.8</ele>
        <time>2022-06-06T11:56:20.000Z</time>
      </trkpt>
      <trkpt lat="42.87286" lon="-0.41634">
        <ele>1853.81</ele>
        <time>2022-06-06T11:56:58.000Z</time>
      </trkpt>
      <trkpt lat="42.87293" lon="-0.41611">
        <ele>1855.3</ele>
        <time>2022-06-06T11:57:25.000Z</time>
      </trkpt>
      <trkpt lat="42.8728" lon="-0.41593">
        <ele>1850.08</ele>
        <time>2022-06-06T11:57:54.000Z</time>
      </trkpt>
      <trkpt lat="42.87266" lon="-0.41575">
        <ele>1849.33</ele>
        <time>2022-06-06T11:58:12.000Z</time>
      </trkpt>
      <trkpt lat="42.87253" lon="-0.41557">
        <ele>1841.53</ele>
        <time>2022-06-06T11:59:18.000Z</time>
      </trkpt>
      <trkpt lat="42.8724" lon="-0.41539">
        <ele>1838.36</ele>
        <time>2022-06-06T11:59:46.000Z</time>
      </trkpt>
      <trkpt lat="42.87224" lon="-0.41523">
        <ele>1830.35</ele>
        <time>2022-06-06T12:00:27.000Z</time>
      </trkpt>
      <trkpt lat="42.8721" lon="-0.41507">
        <ele>1824.97</ele>
        <time>2022-06-06T12:00:57.000Z</time>
      </trkpt>
      <trkpt lat="42.87195" lon="-0.41492">
        <ele>1817.38</ele>
        <time>2022-06-06T12:01:29.000Z</time>
      </trkpt>
      <trkpt lat="42.87177" lon="-0.41482">
        <ele>1817.61</ele>
        <time>2022-06-06T12:01:49.000Z</time>
      </trkpt>
      <trkpt lat="42.8716" lon="-0.41473">
        <ele>1817.75</ele>
        <time>2022-06-06T12:02:03.000Z</time>
      </trkpt>
      <trkpt lat="42.87143" lon="-0.41461">
        <ele>1812.91</ele>
        <time>2022-06-06T12:02:20.000Z</time>
      </trkpt>
      <trkpt lat="42.87126" lon="-0.41451">
        <ele>1813.32</ele>
        <time>2022-06-06T12:02:42.000Z</time>
      </trkpt>
      <trkpt lat="42.87109" lon="-0.41443">
        <ele>1811.81</ele>
        <time>2022-06-06T12:03:06.000Z</time>
      </trkpt>
      <trkpt lat="42.87091" lon="-0.41433">
        <ele>1810.92</ele>
        <time>2022-06-06T12:03:26.000Z</time>
      </trkpt>
      <trkpt lat="42.87081" lon="-0.41412">
        <ele>1811.68</ele>
        <time>2022-06-06T12:03:48.000Z</time>
      </trkpt>
      <trkpt lat="42.87072" lon="-0.4139">
        <ele>1810.4</ele>
        <time>2022-06-06T12:03:58.000Z</time>
      </trkpt>
      <trkpt lat="42.87054" lon="-0.41384">
        <ele>1811.41</ele>
        <time>2022-06-06T12:04:21.000Z</time>
      </trkpt>
      <trkpt lat="42.87035" lon="-0.41379">
        <ele>1805.27</ele>
        <time>2022-06-06T12:04:38.000Z</time>
      </trkpt>
      <trkpt lat="42.8702" lon="-0.41364">
        <ele>1808.33</ele>
        <time>2022-06-06T12:04:51.000Z</time>
      </trkpt>
      <trkpt lat="42.87006" lon="-0.41346">
        <ele>1802.88</ele>
        <time>2022-06-06T12:05:08.000Z</time>
      </trkpt>
      <trkpt lat="42.87002" lon="-0.41321">
        <ele>1805.2</ele>
        <time>2022-06-06T12:05:27.000Z</time>
      </trkpt>
      <trkpt lat="42.87008" lon="-0.41296">
        <ele>1803.76</ele>
        <time>2022-06-06T12:11:31.000Z</time>
      </trkpt>
      <trkpt lat="42.87015" lon="-0.41272">
        <ele>1804.09</ele>
        <time>2022-06-06T12:12:02.000Z</time>
      </trkpt>
      <trkpt lat="42.87025" lon="-0.41251">
        <ele>1806.84</ele>
        <time>2022-06-06T12:12:26.000Z</time>
      </trkpt>
      <trkpt lat="42.87032" lon="-0.41228">
        <ele>1804.21</ele>
        <time>2022-06-06T12:12:41.000Z</time>
      </trkpt>
      <trkpt lat="42.87047" lon="-0.41214">
        <ele>1804.19</ele>
        <time>2022-06-06T12:12:59.000Z</time>
      </trkpt>
      <trkpt lat="42.87064" lon="-0.41204">
        <ele>1800.23</ele>
        <time>2022-06-06T12:13:19.000Z</time>
      </trkpt>
      <trkpt lat="42.87079" lon="-0.41187">
        <ele>1791.53</ele>
        <time>2022-06-06T12:13:50.000Z</time>
      </trkpt>
      <trkpt lat="42.87096" lon="-0.41194">
        <ele>1782.59</ele>
        <time>2022-06-06T12:14:20.000Z</time>
      </trkpt>
      <trkpt lat="42.87113" lon="-0.41204">
        <ele>1781.32</ele>
        <time>2022-06-06T12:14:53.000Z</time>
      </trkpt>
      <trkpt lat="42.87131" lon="-0.41202">
        <ele>1769.85</ele>
        <time>2022-06-06T12:16:01.000Z</time>
      </trkpt>
      <trkpt lat="42.87149" lon="-0.41207">
        <ele>1766.34</ele>
        <time>2022-06-06T12:16:24.000Z</time>
      </trkpt>
      <trkpt lat="42.87169" lon="-0.41206">
        <ele>1765.69</ele>
        <time>2022-06-06T12:16:46.000Z</time>
      </trkpt>
      <trkpt lat="42.87187" lon="-0.41207">
        <ele>1762.71</ele>
        <time>2022-06-06T12:17:05.000Z</time>
      </trkpt>
      <trkpt lat="42.87206" lon="-0.41207">
        <ele>1752.9</ele>
        <time>2022-06-06T12:18:02.000Z</time>
      </trkpt>
      <trkpt lat="42.87225" lon="-0.41207">
        <ele>1743.66</ele>
        <time>2022-06-06T12:18:50.000Z</time>
      </trkpt>
      <trkpt lat="42.87243" lon="-0.41213">
        <ele>1740.39</ele>
        <time>2022-06-06T12:19:04.000Z</time>
      </trkpt>
      <trkpt lat="42.87258" lon="-0.41228">
        <ele>1735.68</ele>
        <time>2022-06-06T12:19:26.000Z</time>
      </trkpt>
      <trkpt lat="42.87275" lon="-0.41238">
        <ele>1734.11</ele>
        <time>2022-06-06T12:19:59.000Z</time>
      </trkpt>
      <trkpt lat="42.87292" lon="-0.41247">
        <ele>1729.5</ele>
        <time>2022-06-06T12:20:16.000Z</time>
      </trkpt>
      <trkpt lat="42.87305" lon="-0.41265">
        <ele>1726.81</ele>
        <time>2022-06-06T12:20:43.000Z</time>
      </trkpt>
      <trkpt lat="42.87323" lon="-0.4127">
        <ele>1725.75</ele>
        <time>2022-06-06T12:20:59.000Z</time>
      </trkpt>
      <trkpt lat="42.87338" lon="-0.41283">
        <ele>1725.09</ele>
        <time>2022-06-06T12:21:15.000Z</time>
      </trkpt>
      <trkpt lat="42.87354" lon="-0.41296">
        <ele>1726.41</ele>
        <time>2022-06-06T12:21:43.000Z</time>
      </trkpt>
      <trkpt lat="42.87361" lon="-0.41319">
        <ele>1717.49</ele>
        <time>2022-06-06T12:22:11.000Z</time>
      </trkpt>
      <trkpt lat="42.87372" lon="-0.413">
        <ele>1710.05</ele>
        <time>2022-06-06T12:22:59.000Z</time>
      </trkpt>
      <trkpt lat="42.87391" lon="-0.41301">
        <ele>1702.51</ele>
        <time>2022-06-06T12:23:43.000Z</time>
      </trkpt>
      <trkpt lat="42.87409" lon="-0.41303">
        <ele>1697.71</ele>
        <time>2022-06-06T12:24:32.000Z</time>
      </trkpt>
      <trkpt lat="42.8741" lon="-0.41277">
        <ele>1674.31</ele>
        <time>2022-06-06T12:25:37.000Z</time>
      </trkpt>
      <trkpt lat="42.87407" lon="-0.41253">
        <ele>1671.83</ele>
        <time>2022-06-06T12:26:09.000Z</time>
      </trkpt>
      <trkpt lat="42.87413" lon="-0.4123">
        <ele>1668.13</ele>
        <time>2022-06-06T12:26:41.000Z</time>
      </trkpt>
      <trkpt lat="42.87431" lon="-0.41232">
        <ele>1658.56</ele>
        <time>2022-06-06T12:27:08.000Z</time>
      </trkpt>
      <trkpt lat="42.87446" lon="-0.41248">
        <ele>1655.63</ele>
        <time>2022-06-06T12:27:26.000Z</time>
      </trkpt>
      <trkpt lat="42.87451" lon="-0.41271">
        <ele>1652.54</ele>
        <time>2022-06-06T12:27:54.000Z</time>
      </trkpt>
      <trkpt lat="42.87459" lon="-0.41294">
        <ele>1651.92</ele>
        <time>2022-06-06T12:28:17.000Z</time>
      </trkpt>
      <trkpt lat="42.8747" lon="-0.41314">
        <ele>1652.43</ele>
        <time>2022-06-06T12:28:40.000Z</time>
      </trkpt>
      <trkpt lat="42.87483" lon="-0.41332">
        <ele>1645.12</ele>
        <time>2022-06-06T12:29:03.000Z</time>
      </trkpt>
      <trkpt lat="42.87498" lon="-0.41348">
        <ele>1641.17</ele>
        <time>2022-06-06T12:29:20.000Z</time>
      </trkpt>
      <trkpt lat="42.8751" lon="-0.41366">
        <ele>1635.08</ele>
        <time>2022-06-06T12:29:36.000Z</time>
      </trkpt>
      <trkpt lat="42.87528" lon="-0.41372">
        <ele>1639.39</ele>
        <time>2022-06-06T12:30:07.000Z</time>
      </trkpt>
      <trkpt lat="42.87542" lon="-0.41357">
        <ele>1640.6</ele>
        <time>2022-06-06T12:32:03.000Z</time>
      </trkpt>
      <trkpt lat="42.87552" lon="-0.41336">
        <ele>1639.28</ele>
        <time>2022-06-06T12:32:20.000Z</time>
      </trkpt>
      <trkpt lat="42.87567" lon="-0.41319">
        <ele>1637.81</ele>
        <time>2022-06-06T12:32:48.000Z</time>
      </trkpt>
      <trkpt lat="42.87582" lon="-0.41305">
        <ele>1636.36</ele>
        <time>2022-06-06T12:33:04.000Z</time>
      </trkpt>
      <trkpt lat="42.87599" lon="-0.41295">
        <ele>1629.1</ele>
        <time>2022-06-06T12:33:29.000Z</time>
      </trkpt>
      <trkpt lat="42.87615" lon="-0.41283">
        <ele>1627.34</ele>
        <time>2022-06-06T12:33:56.000Z</time>
      </trkpt>
      <trkpt lat="42.87625" lon="-0.41262">
        <ele>1624.27</ele>
        <time>2022-06-06T12:34:47.000Z</time>
      </trkpt>
      <trkpt lat="42.87639" lon="-0.41245">
        <ele>1615.22</ele>
        <time>2022-06-06T12:35:12.000Z</time>
      </trkpt>
      <trkpt lat="42.8765" lon="-0.41225">
        <ele>1614.1</ele>
        <time>2022-06-06T12:35:29.000Z</time>
      </trkpt>
      <trkpt lat="42.87664" lon="-0.4121">
        <ele>1609.32</ele>
        <time>2022-06-06T12:35:52.000Z</time>
      </trkpt>
      <trkpt lat="42.87682" lon="-0.41203">
        <ele>1608.65</ele>
        <time>2022-06-06T12:36:15.000Z</time>
      </trkpt>
      <trkpt lat="42.87698" lon="-0.4119">
        <ele>1614.3</ele>
        <time>2022-06-06T12:36:35.000Z</time>
      </trkpt>
      <trkpt lat="42.87714" lon="-0.41177">
        <ele>1598.43</ele>
        <time>2022-06-06T12:37:18.000Z</time>
      </trkpt>
      <trkpt lat="42.87732" lon="-0.4117">
        <ele>1597.47</ele>
        <time>2022-06-06T12:37:29.000Z</time>
      </trkpt>
      <trkpt lat="42.87749" lon="-0.41159">
        <ele>1597.15</ele>
        <time>2022-06-06T12:37:47.000Z</time>
      </trkpt>
      <trkpt lat="42.87767" lon="-0.41154">
        <ele>1591.03</ele>
        <time>2022-06-06T12:38:10.000Z</time>
      </trkpt>
      <trkpt lat="42.8778" lon="-0.41135">
        <ele>1593.14</ele>
        <time>2022-06-06T12:38:26.000Z</time>
      </trkpt>
      <trkpt lat="42.87791" lon="-0.41114">
        <ele>1574.8</ele>
        <time>2022-06-06T12:39:27.000Z</time>
      </trkpt>
      <trkpt lat="42.87776" lon="-0.411">
        <ele>1564.22</ele>
        <time>2022-06-06T12:40:30.000Z</time>
      </trkpt>
      <trkpt lat="42.87787" lon="-0.41082">
        <ele>1559.6</ele>
        <time>2022-06-06T12:41:05.000Z</time>
      </trkpt>
      <trkpt lat="42.87781" lon="-0.41058">
        <ele>1545</ele>
        <time>2022-06-06T12:42:08.000Z</time>
      </trkpt>
      <trkpt lat="42.87795" lon="-0.41043">
        <ele>1545.13</ele>
        <time>2022-06-06T12:42:39.000Z</time>
      </trkpt>
      <trkpt lat="42.8781" lon="-0.41029">
        <ele>1547.94</ele>
        <time>2022-06-06T12:43:09.000Z</time>
      </trkpt>
      <trkpt lat="42.87827" lon="-0.41019">
        <ele>1535.27</ele>
        <time>2022-06-06T12:43:36.000Z</time>
      </trkpt>
      <trkpt lat="42.87834" lon="-0.40996">
        <ele>1533.47</ele>
        <time>2022-06-06T12:44:02.000Z</time>
      </trkpt>
      <trkpt lat="42.87849" lon="-0.40982">
        <ele>1532.17</ele>
        <time>2022-06-06T12:44:23.000Z</time>
      </trkpt>
      <trkpt lat="42.87866" lon="-0.4097">
        <ele>1530.78</ele>
        <time>2022-06-06T12:44:43.000Z</time>
      </trkpt>
      <trkpt lat="42.87878" lon="-0.40952">
        <ele>1528.62</ele>
        <time>2022-06-06T12:45:05.000Z</time>
      </trkpt>
      <trkpt lat="42.87893" lon="-0.40939">
        <ele>1528.31</ele>
        <time>2022-06-06T12:45:23.000Z</time>
      </trkpt>
      <trkpt lat="42.8791" lon="-0.40927">
        <ele>1525.32</ele>
        <time>2022-06-06T12:45:50.000Z</time>
      </trkpt>
      <trkpt lat="42.87923" lon="-0.4091">
        <ele>1511.77</ele>
        <time>2022-06-06T12:46:59.000Z</time>
      </trkpt>
      <trkpt lat="42.87933" lon="-0.40888">
        <ele>1518.47</ele>
        <time>2022-06-06T12:47:25.000Z</time>
      </trkpt>
      <trkpt lat="42.87946" lon="-0.4087">
        <ele>1500.94</ele>
        <time>2022-06-06T12:47:54.000Z</time>
      </trkpt>
      <trkpt lat="42.87956" lon="-0.40849">
        <ele>1498.42</ele>
        <time>2022-06-06T12:48:16.000Z</time>
      </trkpt>
      <trkpt lat="42.87972" lon="-0.40836">
        <ele>1499.37</ele>
        <time>2022-06-06T12:48:39.000Z</time>
      </trkpt>
      <trkpt lat="42.87987" lon="-0.4082">
        <ele>1487.28</ele>
        <time>2022-06-06T12:49:01.000Z</time>
      </trkpt>
      <trkpt lat="42.87997" lon="-0.408">
        <ele>1488.69</ele>
        <time>2022-06-06T12:49:26.000Z</time>
      </trkpt>
      <trkpt lat="42.88015" lon="-0.40788">
        <ele>1481.14</ele>
        <time>2022-06-06T12:49:47.000Z</time>
      </trkpt>
      <trkpt lat="42.88031" lon="-0.40776">
        <ele>1485.02</ele>
        <time>2022-06-06T12:50:20.000Z</time>
      </trkpt>
      <trkpt lat="42.88042" lon="-0.40756">
        <ele>1477.17</ele>
        <time>2022-06-06T12:50:45.000Z</time>
      </trkpt>
      <trkpt lat="42.88054" lon="-0.40736">
        <ele>1474.62</ele>
        <time>2022-06-06T12:51:12.000Z</time>
      </trkpt>
      <trkpt lat="42.88065" lon="-0.40716">
        <ele>1475.53</ele>
        <time>2022-06-06T12:51:39.000Z</time>
      </trkpt>
      <trkpt lat="42.88071" lon="-0.40693">
        <ele>1469.25</ele>
        <time>2022-06-06T12:52:08.000Z</time>
      </trkpt>
      <trkpt lat="42.88084" lon="-0.40675">
        <ele>1465.55</ele>
        <time>2022-06-06T12:52:31.000Z</time>
      </trkpt>
      <trkpt lat="42.881" lon="-0.40664">
        <ele>1457.25</ele>
        <time>2022-06-06T12:52:56.000Z</time>
      </trkpt>
      <trkpt lat="42.88109" lon="-0.40641">
        <ele>1456.43</ele>
        <time>2022-06-06T12:53:17.000Z</time>
      </trkpt>
      <trkpt lat="42.8812" lon="-0.4062">
        <ele>1458.61</ele>
        <time>2022-06-06T12:53:42.000Z</time>
      </trkpt>
      <trkpt lat="42.88102" lon="-0.40631">
        <ele>1441.27</ele>
        <time>2022-06-06T12:55:43.000Z</time>
      </trkpt>
      <trkpt lat="42.88082" lon="-0.4063">
        <ele>1435.82</ele>
        <time>2022-06-06T12:55:54.000Z</time>
      </trkpt>
      <trkpt lat="42.88064" lon="-0.40635">
        <ele>1437.96</ele>
        <time>2022-06-06T12:56:18.000Z</time>
      </trkpt>
      <trkpt lat="42.88046" lon="-0.40642">
        <ele>1436.82</ele>
        <time>2022-06-06T12:56:31.000Z</time>
      </trkpt>
      <trkpt lat="42.88027" lon="-0.40647">
        <ele>1430.29</ele>
        <time>2022-06-06T12:57:11.000Z</time>
      </trkpt>
      <trkpt lat="42.88009" lon="-0.40654">
        <ele>1419.48</ele>
        <time>2022-06-06T12:57:34.000Z</time>
      </trkpt>
      <trkpt lat="42.87992" lon="-0.40644">
        <ele>1403.84</ele>
        <time>2022-06-06T12:58:15.000Z</time>
      </trkpt>
      <trkpt lat="42.87996" lon="-0.40619">
        <ele>1404.35</ele>
        <time>2022-06-06T12:59:14.000Z</time>
      </trkpt>
      <trkpt lat="42.87998" lon="-0.40595">
        <ele>1411.25</ele>
        <time>2022-06-06T12:59:33.000Z</time>
      </trkpt>
      <trkpt lat="42.88011" lon="-0.40577">
        <ele>1402.31</ele>
        <time>2022-06-06T12:59:57.000Z</time>
      </trkpt>
      <trkpt lat="42.88029" lon="-0.40566">
        <ele>1395.72</ele>
        <time>2022-06-06T13:00:24.000Z</time>
      </trkpt>
      <trkpt lat="42.88043" lon="-0.4055">
        <ele>1393.17</ele>
        <time>2022-06-06T13:00:49.000Z</time>
      </trkpt>
      <trkpt lat="42.88052" lon="-0.40528">
        <ele>1397.56</ele>
        <time>2022-06-06T13:01:06.000Z</time>
      </trkpt>
      <trkpt lat="42.88066" lon="-0.40511">
        <ele>1387.46</ele>
        <time>2022-06-06T13:01:25.000Z</time>
      </trkpt>
      <trkpt lat="42.88082" lon="-0.40499">
        <ele>1374.71</ele>
        <time>2022-06-06T13:01:51.000Z</time>
      </trkpt>
      <trkpt lat="42.88096" lon="-0.40483">
        <ele>1370.06</ele>
        <time>2022-06-06T13:02:09.000Z</time>
      </trkpt>
      <trkpt lat="42.88107" lon="-0.40462">
        <ele>1371.38</ele>
        <time>2022-06-06T13:02:25.000Z</time>
      </trkpt>
      <trkpt lat="42.88116" lon="-0.4044">
        <ele>1368.07</ele>
        <time>2022-06-06T13:02:50.000Z</time>
      </trkpt>
      <trkpt lat="42.8813" lon="-0.40423">
        <ele>1356.53</ele>
        <time>2022-06-06T13:03:05.000Z</time>
      </trkpt>
      <trkpt lat="42.88141" lon="-0.40404">
        <ele>1356.21</ele>
        <time>2022-06-06T13:03:28.000Z</time>
      </trkpt>
      <trkpt lat="42.88151" lon="-0.40382">
        <ele>1360.73</ele>
        <time>2022-06-06T13:03:50.000Z</time>
      </trkpt>
      <trkpt lat="42.8814" lon="-0.40401">
        <ele>1351.6</ele>
        <time>2022-06-06T13:04:51.000Z</time>
      </trkpt>
      <trkpt lat="42.88122" lon="-0.40404">
        <ele>1337.14</ele>
        <time>2022-06-06T13:05:12.000Z</time>
      </trkpt>
      <trkpt lat="42.88104" lon="-0.40409">
        <ele>1332.16</ele>
        <time>2022-06-06T13:05:33.000Z</time>
      </trkpt>
      <trkpt lat="42.88087" lon="-0.40417">
        <ele>1325.19</ele>
        <time>2022-06-06T13:06:15.000Z</time>
      </trkpt>
      <trkpt lat="42.8807" lon="-0.40428">
        <ele>1326.88</ele>
        <time>2022-06-06T13:06:29.000Z</time>
      </trkpt>
      <trkpt lat="42.88074" lon="-0.40403">
        <ele>1313.48</ele>
        <time>2022-06-06T13:07:00.000Z</time>
      </trkpt>
      <trkpt lat="42.88082" lon="-0.4038">
        <ele>1316.33</ele>
        <time>2022-06-06T13:07:32.000Z</time>
      </trkpt>
      <trkpt lat="42.88092" lon="-0.4036">
        <ele>1313.86</ele>
        <time>2022-06-06T13:07:55.000Z</time>
      </trkpt>
      <trkpt lat="42.88099" lon="-0.40337">
        <ele>1314.66</ele>
        <time>2022-06-06T13:08:22.000Z</time>
      </trkpt>
      <trkpt lat="42.88106" lon="-0.40314">
        <ele>1312.73</ele>
        <time>2022-06-06T13:08:46.000Z</time>
      </trkpt>
      <trkpt lat="42.88115" lon="-0.40292">
        <ele>1303.33</ele>
        <time>2022-06-06T13:09:04.000Z</time>
      </trkpt>
      <trkpt lat="42.88132" lon="-0.40283">
        <ele>1292.67</ele>
        <time>2022-06-06T13:09:26.000Z</time>
      </trkpt>
      <trkpt lat="42.88114" lon="-0.40292">
        <ele>1295.54</ele>
        <time>2022-06-06T13:10:41.000Z</time>
      </trkpt>
      <trkpt lat="42.88096" lon="-0.40294">
        <ele>1295.08</ele>
        <time>2022-06-06T13:11:02.000Z</time>
      </trkpt>
      <trkpt lat="42.88081" lon="-0.40308">
        <ele>1282.98</ele>
        <time>2022-06-06T13:11:27.000Z</time>
      </trkpt>
      <trkpt lat="42.88065" lon="-0.4032">
        <ele>1275.3</ele>
        <time>2022-06-06T13:11:49.000Z</time>
      </trkpt>
      <trkpt lat="42.88051" lon="-0.40305">
        <ele>1266.79</ele>
        <time>2022-06-06T13:12:17.000Z</time>
      </trkpt>
      <trkpt lat="42.8806" lon="-0.40284">
        <ele>1254.83</ele>
        <time>2022-06-06T13:12:43.000Z</time>
      </trkpt>
      <trkpt lat="42.88046" lon="-0.40269">
        <ele>1250.43</ele>
        <time>2022-06-06T13:13:58.000Z</time>
      </trkpt>
    </trkseg>
  </trk>
</gpx>